sensor_id;sensor_type;location;lat;lon;timestamp;P1;durP1;ratioP1;P2;durP2;ratioP2
16579;SDS011;8402;51.466;6.806;2022-10-30T00:00:54;10.05;;;4.30;;
16579;SDS011;8402;51.466;6.806;2022-10-30T00:03:22;9.02;;;3.70;;
16579;SDS011;8402;51.466;6.806;2022-10-30T00:05:51;13.45;;;4.07;;
16579;SDS011;8402;51.466;6.806;2022-10-30T00:08:20;10.60;;;4.13;;
16579;SDS011;8402;51.466;6.806;2022-10-30T00:10:51;16.77;;;4.68;;
16579;SDS011;8402;51.466;6.806;2022-10-30T00:13:19;11.43;;;4.05;;
16579;SDS011;8402;51.466;6.806;2022-10-30T00:15:48;11.88;;;4.40;;
16579;SDS011;8402;51.466;6.806;2022-10-30T00:18:17;9.00;;;4.40;;
16579;SDS011;8402;51.466;6.806;2022-10-30T00:20:45;9.80;;;4.03;;
16579;SDS011;8402;51.466;6.806;2022-10-30T00:23:15;9.65;;;4.10;;
16579;SDS011;8402;51.466;6.806;2022-10-30T00:25:43;9.48;;;4.00;;
16579;SDS011;8402;51.466;6.806;2022-10-30T00:28:11;12.35;;;4.63;;
16579;SDS011;8402;51.466;6.806;2022-10-30T00:30:39;12.63;;;4.57;;
16579;SDS011;8402;51.466;6.806;2022-10-30T00:33:07;8.40;;;4.00;;
16579;SDS011;8402;51.466;6.806;2022-10-30T00:35:35;12.13;;;4.50;;
16579;SDS011;8402;51.466;6.806;2022-10-30T00:38:03;10.38;;;4.25;;
16579;SDS011;8402;51.466;6.806;2022-10-30T00:40:32;14.30;;;4.53;;
16579;SDS011;8402;51.466;6.806;2022-10-30T00:43:00;7.00;;;4.20;;
16579;SDS011;8402;51.466;6.806;2022-10-30T00:45:28;7.95;;;4.50;;
16579;SDS011;8402;51.466;6.806;2022-10-30T00:47:56;16.33;;;4.67;;
16579;SDS011;8402;51.466;6.806;2022-10-30T00:50:28;9.85;;;4.35;;
16579;SDS011;8402;51.466;6.806;2022-10-30T00:52:59;11.30;;;4.33;;
16579;SDS011;8402;51.466;6.806;2022-10-30T00:55:33;11.43;;;4.18;;
16579;SDS011;8402;51.466;6.806;2022-10-30T00:58:05;12.48;;;4.68;;
16579;SDS011;8402;51.466;6.806;2022-10-30T01:00:37;10.50;;;4.30;;
16579;SDS011;8402;51.466;6.806;2022-10-30T01:03:07;10.33;;;4.00;;
16579;SDS011;8402;51.466;6.806;2022-10-30T01:05:36;12.00;;;4.63;;
16579;SDS011;8402;51.466;6.806;2022-10-30T01:08:05;12.15;;;4.70;;
16579;SDS011;8402;51.466;6.806;2022-10-30T01:10:34;13.77;;;4.60;;
16579;SDS011;8402;51.466;6.806;2022-10-30T01:13:02;15.93;;;4.75;;
16579;SDS011;8402;51.466;6.806;2022-10-30T01:15:31;11.45;;;5.22;;
16579;SDS011;8402;51.466;6.806;2022-10-30T01:18:06;8.43;;;4.20;;
16579;SDS011;8402;51.466;6.806;2022-10-30T01:20:48;8.38;;;4.72;;
16579;SDS011;8402;51.466;6.806;2022-10-30T01:23:34;10.90;;;5.03;;
16579;SDS011;8402;51.466;6.806;2022-10-30T01:26:09;11.90;;;4.90;;
16579;SDS011;8402;51.466;6.806;2022-10-30T01:28:53;7.88;;;4.63;;
16579;SDS011;8402;51.466;6.806;2022-10-30T01:31:36;8.63;;;4.10;;
16579;SDS011;8402;51.466;6.806;2022-10-30T01:34:17;12.65;;;5.10;;
16579;SDS011;8402;51.466;6.806;2022-10-30T01:36:48;13.73;;;5.33;;
16579;SDS011;8402;51.466;6.806;2022-10-30T01:39:21;13.23;;;4.83;;
16579;SDS011;8402;51.466;6.806;2022-10-30T01:41:53;12.10;;;5.10;;
16579;SDS011;8402;51.466;6.806;2022-10-30T01:44:21;21.40;;;5.28;;
16579;SDS011;8402;51.466;6.806;2022-10-30T01:46:59;10.87;;;4.97;;
16579;SDS011;8402;51.466;6.806;2022-10-30T01:52:31;8.93;;;4.85;;
16579;SDS011;8402;51.466;6.806;2022-10-30T01:55:10;14.13;;;5.17;;
16579;SDS011;8402;51.466;6.806;2022-10-30T01:57:48;11.80;;;5.10;;
16579;SDS011;8402;51.466;6.806;2022-10-30T02:00:20;12.40;;;4.72;;
16579;SDS011;8402;51.466;6.806;2022-10-30T02:02:49;11.90;;;4.70;;
16579;SDS011;8402;51.466;6.806;2022-10-30T02:05:19;13.23;;;4.53;;
16579;SDS011;8402;51.466;6.806;2022-10-30T02:07:53;11.03;;;4.83;;
16579;SDS011;8402;51.466;6.806;2022-10-30T02:10:21;11.77;;;5.10;;
16579;SDS011;8402;51.466;6.806;2022-10-30T02:12:51;11.48;;;4.97;;
16579;SDS011;8402;51.466;6.806;2022-10-30T02:15:19;12.07;;;4.87;;
16579;SDS011;8402;51.466;6.806;2022-10-30T02:17:47;11.27;;;4.73;;
16579;SDS011;8402;51.466;6.806;2022-10-30T02:20:17;10.65;;;4.97;;
16579;SDS011;8402;51.466;6.806;2022-10-30T02:22:45;12.80;;;4.93;;
16579;SDS011;8402;51.466;6.806;2022-10-30T02:25:19;12.13;;;5.03;;
16579;SDS011;8402;51.466;6.806;2022-10-30T02:27:47;9.35;;;4.97;;
16579;SDS011;8402;51.466;6.806;2022-10-30T02:30:15;13.10;;;4.87;;
16579;SDS011;8402;51.466;6.806;2022-10-30T02:32:43;12.77;;;5.07;;
16579;SDS011;8402;51.466;6.806;2022-10-30T02:35:11;12.63;;;4.90;;
16579;SDS011;8402;51.466;6.806;2022-10-30T02:37:40;10.23;;;4.90;;
16579;SDS011;8402;51.466;6.806;2022-10-30T02:40:08;14.67;;;5.60;;
16579;SDS011;8402;51.466;6.806;2022-10-30T02:42:37;12.97;;;4.97;;
16579;SDS011;8402;51.466;6.806;2022-10-30T02:45:05;12.23;;;5.30;;
16579;SDS011;8402;51.466;6.806;2022-10-30T02:47:34;11.83;;;4.73;;
16579;SDS011;8402;51.466;6.806;2022-10-30T02:50:02;10.53;;;4.90;;
16579;SDS011;8402;51.466;6.806;2022-10-30T02:52:30;12.10;;;4.87;;
16579;SDS011;8402;51.466;6.806;2022-10-30T02:54:59;11.63;;;4.93;;
16579;SDS011;8402;51.466;6.806;2022-10-30T02:57:27;10.27;;;5.07;;
16579;SDS011;8402;51.466;6.806;2022-10-30T02:59:55;10.50;;;5.07;;
16579;SDS011;8402;51.466;6.806;2022-10-30T03:02:23;11.30;;;4.90;;
16579;SDS011;8402;51.466;6.806;2022-10-30T03:04:51;16.50;;;5.10;;
16579;SDS011;8402;51.466;6.806;2022-10-30T03:07:19;16.00;;;5.37;;
16579;SDS011;8402;51.466;6.806;2022-10-30T03:09:47;12.67;;;5.47;;
16579;SDS011;8402;51.466;6.806;2022-10-30T03:12:16;10.50;;;5.10;;
16579;SDS011;8402;51.466;6.806;2022-10-30T03:14:43;10.47;;;4.93;;
16579;SDS011;8402;51.466;6.806;2022-10-30T03:17:11;12.03;;;5.50;;
16579;SDS011;8402;51.466;6.806;2022-10-30T03:19:39;12.73;;;5.17;;
16579;SDS011;8402;51.466;6.806;2022-10-30T03:22:07;11.27;;;5.10;;
16579;SDS011;8402;51.466;6.806;2022-10-30T03:24:35;11.67;;;5.43;;
16579;SDS011;8402;51.466;6.806;2022-10-30T03:27:03;13.47;;;5.53;;
16579;SDS011;8402;51.466;6.806;2022-10-30T03:29:32;14.33;;;5.10;;
16579;SDS011;8402;51.466;6.806;2022-10-30T03:32:00;15.00;;;4.97;;
16579;SDS011;8402;51.466;6.806;2022-10-30T03:34:28;12.93;;;5.63;;
16579;SDS011;8402;51.466;6.806;2022-10-30T03:36:56;14.10;;;5.40;;
16579;SDS011;8402;51.466;6.806;2022-10-30T03:39:23;11.53;;;5.37;;
16579;SDS011;8402;51.466;6.806;2022-10-30T03:41:51;13.83;;;5.43;;
16579;SDS011;8402;51.466;6.806;2022-10-30T03:44:19;13.53;;;5.10;;
16579;SDS011;8402;51.466;6.806;2022-10-30T03:46:48;17.83;;;5.93;;
16579;SDS011;8402;51.466;6.806;2022-10-30T03:49:16;9.87;;;4.97;;
16579;SDS011;8402;51.466;6.806;2022-10-30T03:51:44;12.70;;;5.37;;
16579;SDS011;8402;51.466;6.806;2022-10-30T03:54:12;13.87;;;5.27;;
16579;SDS011;8402;51.466;6.806;2022-10-30T03:56:39;15.23;;;5.47;;
16579;SDS011;8402;51.466;6.806;2022-10-30T03:59:07;18.10;;;5.47;;
16579;SDS011;8402;51.466;6.806;2022-10-30T04:01:35;15.23;;;5.53;;
16579;SDS011;8402;51.466;6.806;2022-10-30T04:04:05;11.83;;;5.20;;
16579;SDS011;8402;51.466;6.806;2022-10-30T04:06:33;13.43;;;5.40;;
16579;SDS011;8402;51.466;6.806;2022-10-30T04:09:01;12.50;;;5.10;;
16579;SDS011;8402;51.466;6.806;2022-10-30T04:11:29;14.27;;;5.37;;
16579;SDS011;8402;51.466;6.806;2022-10-30T04:13:57;13.80;;;5.20;;
16579;SDS011;8402;51.466;6.806;2022-10-30T04:16:25;12.63;;;5.40;;
16579;SDS011;8402;51.466;6.806;2022-10-30T04:18:53;9.57;;;5.17;;
16579;SDS011;8402;51.466;6.806;2022-10-30T04:21:22;14.67;;;6.03;;
16579;SDS011;8402;51.466;6.806;2022-10-30T04:23:50;10.17;;;5.00;;
16579;SDS011;8402;51.466;6.806;2022-10-30T04:26:19;12.60;;;5.13;;
16579;SDS011;8402;51.466;6.806;2022-10-30T04:28:46;14.33;;;5.30;;
16579;SDS011;8402;51.466;6.806;2022-10-30T04:31:14;13.27;;;5.60;;
16579;SDS011;8402;51.466;6.806;2022-10-30T04:33:42;13.17;;;5.57;;
16579;SDS011;8402;51.466;6.806;2022-10-30T04:36:10;9.33;;;5.10;;
16579;SDS011;8402;51.466;6.806;2022-10-30T04:38:39;10.90;;;5.13;;
16579;SDS011;8402;51.466;6.806;2022-10-30T04:41:07;14.80;;;5.70;;
16579;SDS011;8402;51.466;6.806;2022-10-30T04:43:35;10.37;;;5.20;;
16579;SDS011;8402;51.466;6.806;2022-10-30T04:46:03;11.37;;;5.40;;
16579;SDS011;8402;51.466;6.806;2022-10-30T04:48:31;10.83;;;5.53;;
16579;SDS011;8402;51.466;6.806;2022-10-30T04:51:01;12.43;;;5.10;;
16579;SDS011;8402;51.466;6.806;2022-10-30T04:53:29;10.20;;;5.23;;
16579;SDS011;8402;51.466;6.806;2022-10-30T04:55:58;11.83;;;5.10;;
16579;SDS011;8402;51.466;6.806;2022-10-30T04:58:26;8.30;;;4.83;;
16579;SDS011;8402;51.466;6.806;2022-10-30T05:00:54;14.83;;;4.67;;
16579;SDS011;8402;51.466;6.806;2022-10-30T05:03:28;10.57;;;5.60;;
16579;SDS011;8402;51.466;6.806;2022-10-30T05:05:56;13.30;;;5.57;;
16579;SDS011;8402;51.466;6.806;2022-10-30T05:08:27;11.00;;;5.17;;
16579;SDS011;8402;51.466;6.806;2022-10-30T05:10:55;9.73;;;4.87;;
16579;SDS011;8402;51.466;6.806;2022-10-30T05:13:24;9.20;;;5.60;;
16579;SDS011;8402;51.466;6.806;2022-10-30T05:15:52;11.97;;;5.30;;
16579;SDS011;8402;51.466;6.806;2022-10-30T05:18:21;9.87;;;4.27;;
16579;SDS011;8402;51.466;6.806;2022-10-30T05:20:49;7.17;;;4.87;;
16579;SDS011;8402;51.466;6.806;2022-10-30T05:23:17;11.30;;;5.07;;
16579;SDS011;8402;51.466;6.806;2022-10-30T05:25:45;8.83;;;5.30;;
16579;SDS011;8402;51.466;6.806;2022-10-30T05:28:12;12.43;;;5.17;;
16579;SDS011;8402;51.466;6.806;2022-10-30T05:30:44;11.07;;;5.30;;
16579;SDS011;8402;51.466;6.806;2022-10-30T05:33:13;16.47;;;5.10;;
16579;SDS011;8402;51.466;6.806;2022-10-30T05:35:43;15.97;;;5.00;;
16579;SDS011;8402;51.466;6.806;2022-10-30T05:38:11;19.33;;;8.77;;
16579;SDS011;8402;51.466;6.806;2022-10-30T05:40:39;17.17;;;6.57;;
16579;SDS011;8402;51.466;6.806;2022-10-30T05:43:07;17.23;;;7.03;;
16579;SDS011;8402;51.466;6.806;2022-10-30T05:45:35;19.33;;;9.23;;
16579;SDS011;8402;51.466;6.806;2022-10-30T05:48:04;16.27;;;8.87;;
16579;SDS011;8402;51.466;6.806;2022-10-30T05:50:33;15.53;;;8.83;;
16579;SDS011;8402;51.466;6.806;2022-10-30T05:53:02;18.77;;;9.93;;
16579;SDS011;8402;51.466;6.806;2022-10-30T05:55:31;20.63;;;10.10;;
16579;SDS011;8402;51.466;6.806;2022-10-30T05:58:00;17.63;;;10.03;;
16579;SDS011;8402;51.466;6.806;2022-10-30T06:00:30;19.73;;;8.90;;
16579;SDS011;8402;51.466;6.806;2022-10-30T06:03:00;20.73;;;9.33;;
16579;SDS011;8402;51.466;6.806;2022-10-30T06:05:30;20.23;;;9.53;;
16579;SDS011;8402;51.466;6.806;2022-10-30T06:07:59;16.67;;;9.03;;
16579;SDS011;8402;51.466;6.806;2022-10-30T06:10:28;19.83;;;8.67;;
16579;SDS011;8402;51.466;6.806;2022-10-30T06:12:56;16.60;;;8.67;;
16579;SDS011;8402;51.466;6.806;2022-10-30T06:15:27;16.00;;;7.93;;
16579;SDS011;8402;51.466;6.806;2022-10-30T06:17:55;15.80;;;7.77;;
16579;SDS011;8402;51.466;6.806;2022-10-30T06:20:25;17.00;;;7.53;;
16579;SDS011;8402;51.466;6.806;2022-10-30T06:22:55;18.43;;;7.83;;
16579;SDS011;8402;51.466;6.806;2022-10-30T06:25:24;14.87;;;7.40;;
16579;SDS011;8402;51.466;6.806;2022-10-30T06:27:53;13.37;;;7.00;;
16579;SDS011;8402;51.466;6.806;2022-10-30T06:30:21;15.63;;;7.17;;
16579;SDS011;8402;51.466;6.806;2022-10-30T06:32:51;14.87;;;7.07;;
16579;SDS011;8402;51.466;6.806;2022-10-30T06:35:23;17.03;;;8.40;;
16579;SDS011;8402;51.466;6.806;2022-10-30T06:37:51;16.87;;;7.90;;
16579;SDS011;8402;51.466;6.806;2022-10-30T06:40:22;16.03;;;8.20;;
16579;SDS011;8402;51.466;6.806;2022-10-30T06:42:51;14.97;;;7.50;;
16579;SDS011;8402;51.466;6.806;2022-10-30T06:45:20;18.73;;;7.23;;
16579;SDS011;8402;51.466;6.806;2022-10-30T06:47:49;14.73;;;7.43;;
16579;SDS011;8402;51.466;6.806;2022-10-30T06:50:18;20.77;;;7.10;;
16579;SDS011;8402;51.466;6.806;2022-10-30T06:52:47;15.00;;;6.37;;
16579;SDS011;8402;51.466;6.806;2022-10-30T06:55:15;16.17;;;6.53;;
16579;SDS011;8402;51.466;6.806;2022-10-30T06:57:45;15.97;;;7.90;;
16579;SDS011;8402;51.466;6.806;2022-10-30T07:00:13;10.33;;;6.80;;
16579;SDS011;8402;51.466;6.806;2022-10-30T07:02:41;19.13;;;7.93;;
16579;SDS011;8402;51.466;6.806;2022-10-30T07:05:08;15.87;;;7.23;;
16579;SDS011;8402;51.466;6.806;2022-10-30T07:07:36;12.00;;;7.17;;
16579;SDS011;8402;51.466;6.806;2022-10-30T07:10:04;16.53;;;7.40;;
16579;SDS011;8402;51.466;6.806;2022-10-30T07:12:32;16.90;;;7.13;;
16579;SDS011;8402;51.466;6.806;2022-10-30T07:15:02;15.43;;;6.87;;
16579;SDS011;8402;51.466;6.806;2022-10-30T07:17:30;22.87;;;10.47;;
16579;SDS011;8402;51.466;6.806;2022-10-30T07:19:58;25.93;;;12.23;;
16579;SDS011;8402;51.466;6.806;2022-10-30T07:22:25;17.10;;;10.03;;
16579;SDS011;8402;51.466;6.806;2022-10-30T07:24:53;24.10;;;12.27;;
16579;SDS011;8402;51.466;6.806;2022-10-30T07:27:21;20.47;;;9.80;;
16579;SDS011;8402;51.466;6.806;2022-10-30T07:29:49;18.23;;;10.77;;
16579;SDS011;8402;51.466;6.806;2022-10-30T07:32:18;22.80;;;11.00;;
16579;SDS011;8402;51.466;6.806;2022-10-30T07:34:46;23.73;;;11.93;;
16579;SDS011;8402;51.466;6.806;2022-10-30T07:37:14;20.60;;;11.23;;
16579;SDS011;8402;51.466;6.806;2022-10-30T07:39:42;24.00;;;13.70;;
16579;SDS011;8402;51.466;6.806;2022-10-30T07:42:10;25.40;;;13.07;;
16579;SDS011;8402;51.466;6.806;2022-10-30T07:44:37;25.33;;;13.37;;
16579;SDS011;8402;51.466;6.806;2022-10-30T07:47:05;25.73;;;13.63;;
16579;SDS011;8402;51.466;6.806;2022-10-30T07:49:35;22.40;;;12.13;;
16579;SDS011;8402;51.466;6.806;2022-10-30T07:52:03;21.43;;;11.63;;
16579;SDS011;8402;51.466;6.806;2022-10-30T07:54:31;19.40;;;9.07;;
16579;SDS011;8402;51.466;6.806;2022-10-30T07:56:59;18.83;;;8.23;;
16579;SDS011;8402;51.466;6.806;2022-10-30T07:59:27;18.43;;;8.27;;
16579;SDS011;8402;51.466;6.806;2022-10-30T08:01:55;20.13;;;8.83;;
16579;SDS011;8402;51.466;6.806;2022-10-30T08:04:23;15.57;;;7.43;;
16579;SDS011;8402;51.466;6.806;2022-10-30T08:06:53;14.03;;;7.63;;
16579;SDS011;8402;51.466;6.806;2022-10-30T08:09:20;18.20;;;8.50;;
16579;SDS011;8402;51.466;6.806;2022-10-30T08:11:48;20.27;;;9.40;;
16579;SDS011;8402;51.466;6.806;2022-10-30T08:14:16;14.90;;;8.83;;
16579;SDS011;8402;51.466;6.806;2022-10-30T08:16:44;20.37;;;8.70;;
16579;SDS011;8402;51.466;6.806;2022-10-30T08:19:11;14.43;;;6.90;;
16579;SDS011;8402;51.466;6.806;2022-10-30T08:21:39;18.10;;;6.90;;
16579;SDS011;8402;51.466;6.806;2022-10-30T08:24:09;13.63;;;6.60;;
16579;SDS011;8402;51.466;6.806;2022-10-30T08:26:37;13.27;;;6.00;;
16579;SDS011;8402;51.466;6.806;2022-10-30T08:29:05;17.23;;;6.13;;
16579;SDS011;8402;51.466;6.806;2022-10-30T08:31:33;13.17;;;5.73;;
16579;SDS011;8402;51.466;6.806;2022-10-30T08:34:01;12.57;;;5.40;;
16579;SDS011;8402;51.466;6.806;2022-10-30T08:36:29;13.57;;;6.43;;
16579;SDS011;8402;51.466;6.806;2022-10-30T08:38:57;13.10;;;5.43;;
16579;SDS011;8402;51.466;6.806;2022-10-30T08:41:26;14.40;;;5.60;;
16579;SDS011;8402;51.466;6.806;2022-10-30T08:43:54;12.43;;;4.97;;
16579;SDS011;8402;51.466;6.806;2022-10-30T08:46:22;7.97;;;4.93;;
16579;SDS011;8402;51.466;6.806;2022-10-30T08:48:49;15.53;;;5.13;;
16579;SDS011;8402;51.466;6.806;2022-10-30T08:51:17;11.27;;;4.83;;
16579;SDS011;8402;51.466;6.806;2022-10-30T08:53:46;12.00;;;4.93;;
16579;SDS011;8402;51.466;6.806;2022-10-30T08:56:15;13.67;;;5.10;;
16579;SDS011;8402;51.466;6.806;2022-10-30T08:58:44;11.53;;;5.13;;
16579;SDS011;8402;51.466;6.806;2022-10-30T09:01:12;17.23;;;5.43;;
16579;SDS011;8402;51.466;6.806;2022-10-30T09:03:40;9.07;;;4.70;;
16579;SDS011;8402;51.466;6.806;2022-10-30T09:06:09;14.47;;;5.40;;
16579;SDS011;8402;51.466;6.806;2022-10-30T09:08:37;16.37;;;5.50;;
16579;SDS011;8402;51.466;6.806;2022-10-30T09:11:05;11.03;;;4.70;;
16579;SDS011;8402;51.466;6.806;2022-10-30T09:13:33;14.07;;;4.90;;
16579;SDS011;8402;51.466;6.806;2022-10-30T09:16:02;11.50;;;5.00;;
16579;SDS011;8402;51.466;6.806;2022-10-30T09:18:31;12.03;;;4.63;;
16579;SDS011;8402;51.466;6.806;2022-10-30T09:20:59;12.20;;;4.53;;
16579;SDS011;8402;51.466;6.806;2022-10-30T09:23:30;11.90;;;4.83;;
16579;SDS011;8402;51.466;6.806;2022-10-30T09:25:58;17.27;;;4.67;;
16579;SDS011;8402;51.466;6.806;2022-10-30T09:28:26;12.00;;;5.00;;
16579;SDS011;8402;51.466;6.806;2022-10-30T09:30:54;8.90;;;4.87;;
16579;SDS011;8402;51.466;6.806;2022-10-30T09:33:24;13.87;;;5.00;;
16579;SDS011;8402;51.466;6.806;2022-10-30T09:35:52;15.47;;;4.77;;
16579;SDS011;8402;51.466;6.806;2022-10-30T09:38:20;10.67;;;4.50;;
16579;SDS011;8402;51.466;6.806;2022-10-30T09:40:52;12.53;;;4.43;;
16579;SDS011;8402;51.466;6.806;2022-10-30T09:43:31;9.60;;;4.37;;
16579;SDS011;8402;51.466;6.806;2022-10-30T09:46:08;13.23;;;4.43;;
16579;SDS011;8402;51.466;6.806;2022-10-30T09:49:11;8.23;;;4.28;;
16579;SDS011;8402;51.466;6.806;2022-10-30T09:52:12;14.23;;;4.77;;
16579;SDS011;8402;51.466;6.806;2022-10-30T09:54:56;11.73;;;4.93;;
16579;SDS011;8402;51.466;6.806;2022-10-30T09:57:47;11.38;;;4.38;;
16579;SDS011;8402;51.466;6.806;2022-10-30T10:00:22;12.63;;;4.43;;
16579;SDS011;8402;51.466;6.806;2022-10-30T10:02:57;12.35;;;4.35;;
16579;SDS011;8402;51.466;6.806;2022-10-30T10:05:41;10.52;;;4.32;;
16579;SDS011;8402;51.466;6.806;2022-10-30T10:08:12;11.02;;;4.65;;
16579;SDS011;8402;51.466;6.806;2022-10-30T10:10:43;12.35;;;4.47;;
16579;SDS011;8402;51.466;6.806;2022-10-30T10:13:21;12.30;;;4.13;;
16579;SDS011;8402;51.466;6.806;2022-10-30T10:15:54;14.55;;;4.60;;
16579;SDS011;8402;51.466;6.806;2022-10-30T10:18:27;14.27;;;3.95;;
16579;SDS011;8402;51.466;6.806;2022-10-30T10:21:03;11.35;;;4.35;;
16579;SDS011;8402;51.466;6.806;2022-10-30T10:23:37;11.80;;;4.05;;
16579;SDS011;8402;51.466;6.806;2022-10-30T10:26:17;13.48;;;4.18;;
16579;SDS011;8402;51.466;6.806;2022-10-30T10:28:56;12.65;;;4.07;;
16579;SDS011;8402;51.466;6.806;2022-10-30T10:31:38;13.48;;;5.18;;
16579;SDS011;8402;51.466;6.806;2022-10-30T10:34:16;16.35;;;4.47;;
16579;SDS011;8402;51.466;6.806;2022-10-30T10:36:57;10.15;;;4.13;;
16579;SDS011;8402;51.466;6.806;2022-10-30T10:39:45;11.90;;;4.20;;
16579;SDS011;8402;51.466;6.806;2022-10-30T10:42:34;9.88;;;3.95;;
16579;SDS011;8402;51.466;6.806;2022-10-30T10:45:16;12.40;;;4.25;;
16579;SDS011;8402;51.466;6.806;2022-10-30T10:47:54;10.27;;;4.20;;
16579;SDS011;8402;51.466;6.806;2022-10-30T10:50:42;9.90;;;5.10;;
16579;SDS011;8402;51.466;6.806;2022-10-30T10:53:19;16.38;;;5.10;;
16579;SDS011;8402;51.466;6.806;2022-10-30T10:55:51;16.00;;;4.88;;
16579;SDS011;8402;51.466;6.806;2022-10-30T10:58:26;7.95;;;4.32;;
16579;SDS011;8402;51.466;6.806;2022-10-30T11:00:56;13.52;;;4.20;;
16579;SDS011;8402;51.466;6.806;2022-10-30T11:03:28;11.00;;;4.18;;
16579;SDS011;8402;51.466;6.806;2022-10-30T11:06:17;9.15;;;4.47;;
16579;SDS011;8402;51.466;6.806;2022-10-30T11:08:49;15.27;;;5.05;;
16579;SDS011;8402;51.466;6.806;2022-10-30T11:11:20;8.27;;;3.90;;
16579;SDS011;8402;51.466;6.806;2022-10-30T11:13:48;10.93;;;3.80;;
16579;SDS011;8402;51.466;6.806;2022-10-30T11:16:20;13.70;;;4.05;;
16579;SDS011;8402;51.466;6.806;2022-10-30T11:18:54;10.93;;;3.72;;
16579;SDS011;8402;51.466;6.806;2022-10-30T11:21:26;10.38;;;4.25;;
16579;SDS011;8402;51.466;6.806;2022-10-30T11:23:58;16.05;;;4.28;;
16579;SDS011;8402;51.466;6.806;2022-10-30T11:26:27;13.20;;;4.15;;
16579;SDS011;8402;51.466;6.806;2022-10-30T11:28:58;10.75;;;4.20;;
16579;SDS011;8402;51.466;6.806;2022-10-30T11:31:30;10.85;;;4.45;;
16579;SDS011;8402;51.466;6.806;2022-10-30T11:34:14;9.80;;;3.63;;
16579;SDS011;8402;51.466;6.806;2022-10-30T11:36:51;12.63;;;4.40;;
16579;SDS011;8402;51.466;6.806;2022-10-30T11:39:22;12.63;;;3.90;;
16579;SDS011;8402;51.466;6.806;2022-10-30T11:41:54;11.98;;;3.78;;
16579;SDS011;8402;51.466;6.806;2022-10-30T11:44:26;12.38;;;4.43;;
16579;SDS011;8402;51.466;6.806;2022-10-30T11:46:57;9.15;;;3.63;;
16579;SDS011;8402;51.466;6.806;2022-10-30T11:49:29;11.55;;;3.92;;
16579;SDS011;8402;51.466;6.806;2022-10-30T11:52:01;10.85;;;4.22;;
16579;SDS011;8402;51.466;6.806;2022-10-30T11:54:33;12.02;;;4.38;;
16579;SDS011;8402;51.466;6.806;2022-10-30T11:57:02;7.93;;;4.07;;
16579;SDS011;8402;51.466;6.806;2022-10-30T11:59:31;9.07;;;3.97;;
16579;SDS011;8402;51.466;6.806;2022-10-30T12:02:00;10.18;;;4.18;;
16579;SDS011;8402;51.466;6.806;2022-10-30T12:04:35;11.90;;;4.43;;
16579;SDS011;8402;51.466;6.806;2022-10-30T12:07:06;10.32;;;4.47;;
16579;SDS011;8402;51.466;6.806;2022-10-30T12:09:43;7.15;;;4.05;;
16579;SDS011;8402;51.466;6.806;2022-10-30T12:12:17;14.85;;;4.40;;
16579;SDS011;8402;51.466;6.806;2022-10-30T12:14:49;9.68;;;4.22;;
16579;SDS011;8402;51.466;6.806;2022-10-30T12:17:18;12.68;;;4.40;;
16579;SDS011;8402;51.466;6.806;2022-10-30T12:19:48;14.60;;;4.28;;
16579;SDS011;8402;51.466;6.806;2022-10-30T12:22:29;8.73;;;3.70;;
16579;SDS011;8402;51.466;6.806;2022-10-30T12:25:00;8.82;;;4.05;;
16579;SDS011;8402;51.466;6.806;2022-10-30T12:27:32;9.20;;;4.13;;
16579;SDS011;8402;51.466;6.806;2022-10-30T12:30:05;11.15;;;4.18;;
16579;SDS011;8402;51.466;6.806;2022-10-30T12:32:40;15.15;;;4.10;;
16579;SDS011;8402;51.466;6.806;2022-10-30T12:35:16;14.52;;;4.30;;
16579;SDS011;8402;51.466;6.806;2022-10-30T12:37:58;13.50;;;4.28;;
16579;SDS011;8402;51.466;6.806;2022-10-30T12:40:29;14.10;;;4.00;;
16579;SDS011;8402;51.466;6.806;2022-10-30T12:43:04;9.88;;;4.15;;
16579;SDS011;8402;51.466;6.806;2022-10-30T12:45:40;10.20;;;4.57;;
16579;SDS011;8402;51.466;6.806;2022-10-30T12:48:12;10.90;;;4.18;;
16579;SDS011;8402;51.466;6.806;2022-10-30T12:50:46;13.75;;;4.40;;
16579;SDS011;8402;51.466;6.806;2022-10-30T12:53:23;7.50;;;3.85;;
16579;SDS011;8402;51.466;6.806;2022-10-30T12:55:59;9.30;;;4.28;;
16579;SDS011;8402;51.466;6.806;2022-10-30T12:58:35;9.60;;;4.20;;
16579;SDS011;8402;51.466;6.806;2022-10-30T13:01:10;11.98;;;4.47;;
16579;SDS011;8402;51.466;6.806;2022-10-30T13:03:45;9.20;;;4.13;;
16579;SDS011;8402;51.466;6.806;2022-10-30T13:06:19;17.83;;;4.97;;
16579;SDS011;8402;51.466;6.806;2022-10-30T13:08:56;11.25;;;4.65;;
16579;SDS011;8402;51.466;6.806;2022-10-30T13:11:37;11.73;;;3.92;;
16579;SDS011;8402;51.466;6.806;2022-10-30T13:14:11;12.50;;;4.38;;
16579;SDS011;8402;51.466;6.806;2022-10-30T13:16:42;8.23;;;3.97;;
16579;SDS011;8402;51.466;6.806;2022-10-30T13:19:10;9.68;;;3.97;;
16579;SDS011;8402;51.466;6.806;2022-10-30T13:24:09;8.20;;;4.25;;
16579;SDS011;8402;51.466;6.806;2022-10-30T13:26:41;12.80;;;4.10;;
16579;SDS011;8402;51.466;6.806;2022-10-30T13:29:16;15.00;;;4.25;;
16579;SDS011;8402;51.466;6.806;2022-10-30T13:31:51;10.82;;;4.05;;
16579;SDS011;8402;51.466;6.806;2022-10-30T13:34:32;8.90;;;4.10;;
16579;SDS011;8402;51.466;6.806;2022-10-30T13:37:10;14.93;;;4.57;;
16579;SDS011;8402;51.466;6.806;2022-10-30T13:39:42;15.95;;;4.22;;
16579;SDS011;8402;51.466;6.806;2022-10-30T13:42:24;13.10;;;4.65;;
16579;SDS011;8402;51.466;6.806;2022-10-30T13:45:06;6.93;;;3.95;;
16579;SDS011;8402;51.466;6.806;2022-10-30T13:47:54;15.10;;;4.70;;
16579;SDS011;8402;51.466;6.806;2022-10-30T13:50:34;10.45;;;4.50;;
16579;SDS011;8402;51.466;6.806;2022-10-30T13:55:56;13.70;;;4.22;;
16579;SDS011;8402;51.466;6.806;2022-10-30T13:58:27;13.85;;;4.63;;
16579;SDS011;8402;51.466;6.806;2022-10-30T14:01:02;10.85;;;4.60;;
16579;SDS011;8402;51.466;6.806;2022-10-30T14:03:38;12.02;;;4.35;;
16579;SDS011;8402;51.466;6.806;2022-10-30T14:06:18;10.48;;;4.28;;
16579;SDS011;8402;51.466;6.806;2022-10-30T14:08:58;14.82;;;4.55;;
16579;SDS011;8402;51.466;6.806;2022-10-30T14:11:32;12.05;;;4.75;;
16579;SDS011;8402;51.466;6.806;2022-10-30T14:14:04;13.02;;;5.00;;
16579;SDS011;8402;51.466;6.806;2022-10-30T14:17:06;6.72;;;4.00;;
16579;SDS011;8402;51.466;6.806;2022-10-30T14:22:39;13.55;;;4.38;;
16579;SDS011;8402;51.466;6.806;2022-10-30T14:25:11;16.33;;;4.60;;
16579;SDS011;8402;51.466;6.806;2022-10-30T14:27:40;12.80;;;4.65;;
16579;SDS011;8402;51.466;6.806;2022-10-30T14:30:19;12.30;;;4.10;;
16579;SDS011;8402;51.466;6.806;2022-10-30T14:32:48;19.83;;;4.97;;
16579;SDS011;8402;51.466;6.806;2022-10-30T14:35:27;13.27;;;4.50;;
16579;SDS011;8402;51.466;6.806;2022-10-30T14:40:44;15.88;;;4.65;;
16579;SDS011;8402;51.466;6.806;2022-10-30T14:43:39;10.73;;;4.50;;
16579;SDS011;8402;51.466;6.806;2022-10-30T14:46:18;10.52;;;4.88;;
16579;SDS011;8402;51.466;6.806;2022-10-30T14:48:55;11.45;;;4.82;;
16579;SDS011;8402;51.466;6.806;2022-10-30T14:51:33;13.50;;;4.80;;
16579;SDS011;8402;51.466;6.806;2022-10-30T14:54:09;10.10;;;4.38;;
16579;SDS011;8402;51.466;6.806;2022-10-30T14:56:46;12.98;;;5.10;;
16579;SDS011;8402;51.466;6.806;2022-10-30T14:59:19;11.40;;;4.57;;
16579;SDS011;8402;51.466;6.806;2022-10-30T15:01:54;15.13;;;4.50;;
16579;SDS011;8402;51.466;6.806;2022-10-30T15:04:48;11.90;;;5.25;;
16579;SDS011;8402;51.466;6.806;2022-10-30T15:07:32;8.48;;;4.75;;
16579;SDS011;8402;51.466;6.806;2022-10-30T15:10:10;11.15;;;4.53;;
16579;SDS011;8402;51.466;6.806;2022-10-30T15:15:38;10.43;;;5.10;;
16579;SDS011;8402;51.466;6.806;2022-10-30T15:18:09;12.60;;;5.10;;
16579;SDS011;8402;51.466;6.806;2022-10-30T15:20:42;16.55;;;7.20;;
16579;SDS011;8402;51.466;6.806;2022-10-30T15:23:11;12.95;;;5.75;;
16579;SDS011;8402;51.466;6.806;2022-10-30T15:25:49;11.07;;;5.40;;
16579;SDS011;8402;51.466;6.806;2022-10-30T15:28:19;11.57;;;5.50;;
16579;SDS011;8402;51.466;6.806;2022-10-30T15:30:57;12.90;;;5.65;;